createdAt,value
2018-01-19T00:00:00.426Z,68.69
2018-01-19T00:02:28.038Z,68.80
2018-01-19T00:04:55.566Z,68.61
2018-01-19T00:07:23.274Z,68.39
2018-01-19T00:09:50.840Z,67.58
2018-01-19T00:12:18.366Z,68.57
2018-01-19T00:14:46.121Z,69.53
2018-01-19T00:17:13.659Z,70.85
2018-01-19T00:19:41.189Z,72.67
2018-01-19T00:22:08.976Z,72.45
2018-01-19T00:24:36.549Z,73.15
2018-01-19T00:27:04.210Z,73.95
2018-01-19T00:29:31.742Z,75.09
2018-01-19T00:31:59.318Z,74.83
2018-01-19T00:34:26.865Z,73.21
2018-01-19T00:36:54.403Z,72.10
2018-01-19T00:39:22.103Z,71.98
2018-01-19T00:41:49.794Z,71.78
2018-01-19T00:44:17.434Z,71.81
2018-01-19T00:46:44.978Z,72.58
2018-01-19T00:49:12.675Z,72.65
2018-01-19T00:51:40.254Z,72.42
2018-01-19T00:54:07.791Z,72.37
2018-01-19T00:56:35.354Z,73.26
2018-01-19T00:59:02.894Z,72.84
2018-01-19T01:01:30.421Z,74.16
2018-01-19T01:03:57.973Z,74.28
2018-01-19T01:06:25.510Z,73.66
2018-01-19T01:08:53.059Z,73.73
2018-01-19T01:11:20.594Z,74.27
2018-01-19T01:13:48.178Z,73.90
2018-01-19T01:16:15.734Z,74.33
2018-01-19T01:18:43.262Z,74.83
2018-01-19T01:21:10.834Z,75.12
2018-01-19T01:23:38.374Z,74.71
2018-01-19T01:26:05.925Z,74.97
2018-01-19T01:28:33.473Z,74.87
2018-01-19T01:31:01.067Z,74.69
2018-01-19T01:33:28.609Z,74.98
2018-01-19T01:35:56.405Z,72.43
2018-01-19T01:38:23.947Z,69.29
2018-01-19T01:40:51.482Z,67.06
2018-01-19T01:43:19.024Z,66.98
2018-01-19T01:45:46.545Z,66.61
2018-01-19T01:48:14.130Z,65.31
2018-01-19T01:50:41.654Z,66.75
2018-01-19T01:53:09.331Z,66.03
2018-01-19T01:55:36.951Z,66.83
2018-01-19T01:58:04.666Z,68.17
2018-01-19T02:00:32.239Z,69.88
2018-01-19T02:02:59.762Z,69.68
2018-01-19T02:05:27.346Z,70.07
2018-01-19T02:07:55.136Z,71.21
2018-01-19T02:10:22.682Z,72.13
2018-01-19T02:12:50.346Z,72.09
2018-01-19T02:15:17.903Z,72.38
2018-01-19T02:17:45.462Z,73.49
2018-01-19T02:20:13.086Z,73.94
2018-01-19T02:22:40.686Z,71.00
2018-01-19T02:25:08.462Z,70.64
2018-01-19T02:27:36.082Z,70.82
2018-01-19T02:30:03.800Z,67.63
2018-01-19T02:32:31.333Z,67.94
2018-01-19T02:34:58.906Z,68.49
2018-01-19T02:37:26.426Z,69.45
2018-01-19T02:39:53.956Z,69.49
2018-01-19T02:42:21.554Z,69.09
2018-01-19T02:44:49.304Z,68.94
2018-01-19T02:47:16.864Z,70.04
2018-01-19T02:49:44.494Z,70.83
2018-01-19T02:52:12.259Z,70.48
2018-01-19T02:54:39.877Z,70.82
2018-01-19T02:57:07.410Z,70.75
2018-01-19T02:59:34.987Z,70.31
2018-01-19T03:02:02.685Z,70.22
2018-01-19T03:04:30.450Z,68.89
2018-01-19T03:06:57.981Z,69.56
2018-01-19T03:09:25.682Z,70.56
2018-01-19T03:11:53.227Z,70.63
2018-01-19T03:14:20.918Z,71.62
2018-01-19T03:16:48.470Z,73.23
2018-01-19T03:19:16.022Z,74.05
2018-01-19T03:21:43.670Z,74.81
2018-01-19T03:24:11.218Z,75.09
2018-01-19T03:26:38.906Z,75.03
2018-01-19T03:29:06.466Z,73.28
2018-01-19T03:31:34.241Z,69.94
2018-01-19T03:34:01.960Z,70.44
2018-01-19T03:36:29.505Z,69.90
2018-01-19T03:38:57.035Z,69.49
2018-01-19T03:41:24.716Z,68.63
2018-01-19T03:43:52.314Z,68.97
2018-01-19T03:46:20.024Z,69.39
2018-01-19T03:48:47.658Z,68.61
2018-01-19T03:51:15.242Z,68.73
2018-01-19T03:53:43.002Z,68.14
2018-01-19T03:56:10.542Z,67.80
2018-01-19T03:58:38.130Z,67.72
2018-01-19T04:01:05.673Z,67.87
2018-01-19T04:03:33.266Z,67.85
2018-01-19T04:06:00.895Z,67.71
2018-01-19T04:08:28.608Z,67.56
2018-01-19T04:10:56.326Z,67.58
2018-01-19T04:13:23.945Z,66.53
2018-01-19T04:15:51.490Z,66.70
2018-01-19T04:18:19.027Z,66.93
2018-01-19T04:20:46.659Z,67.00
2018-01-19T04:23:14.194Z,67.02
2018-01-19T04:25:41.730Z,66.93
2018-01-19T04:28:09.274Z,65.56
2018-01-19T04:30:36.810Z,65.75
2018-01-19T04:33:04.376Z,65.48
2018-01-19T04:35:32.004Z,64.57
2018-01-19T04:37:59.594Z,64.77
2018-01-19T04:40:27.176Z,63.83
2018-01-19T04:42:54.714Z,62.72
2018-01-19T04:45:22.270Z,63.17
2018-01-19T04:47:49.892Z,63.93
2018-01-19T04:50:17.450Z,64.25
2018-01-19T04:52:45.228Z,64.57
2018-01-19T04:55:12.826Z,65.58
2018-01-19T04:57:40.666Z,65.62
2018-01-19T05:00:08.482Z,67.87
2018-01-19T05:02:36.056Z,68.77
2018-01-19T05:05:03.819Z,69.39
2018-01-19T05:07:31.939Z,71.13
2018-01-19T05:09:59.483Z,72.35
2018-01-19T05:12:27.082Z,73.20
2018-01-19T05:14:54.682Z,74.36
2018-01-19T05:17:22.317Z,66.96
2018-01-19T05:19:50.031Z,65.43
2018-01-19T05:22:17.562Z,63.86
2018-01-19T05:24:45.118Z,63.71
2018-01-19T05:27:12.674Z,62.90
2018-01-19T05:29:40.499Z,61.97
2018-01-19T05:32:08.318Z,62.03
2018-01-19T05:34:35.861Z,62.71
2018-01-19T05:37:03.653Z,64.17
2018-01-19T05:39:31.190Z,65.03
2018-01-19T05:41:58.727Z,64.74
2018-01-19T05:44:26.258Z,64.78
2018-01-19T05:46:54.130Z,64.70
2018-01-19T05:49:21.678Z,64.07
2018-01-19T05:51:49.272Z,63.81
2018-01-19T05:54:16.879Z,64.83
2018-01-19T05:56:44.479Z,63.84
2018-01-19T05:59:12.213Z,64.23
2018-01-19T06:01:39.931Z,64.84
2018-01-19T06:04:07.752Z,64.09
2018-01-19T06:06:35.290Z,63.81
2018-01-19T06:09:02.838Z,64.38
2018-01-19T06:11:30.378Z,64.87
2018-01-19T06:13:58.028Z,65.06
2018-01-19T06:16:25.574Z,64.75
2018-01-19T06:18:53.166Z,64.30
2018-01-19T06:21:20.822Z,64.35
2018-01-19T06:23:48.491Z,62.83
2018-01-19T06:26:16.031Z,62.76
2018-01-19T06:28:43.578Z,62.10
2018-01-19T06:31:11.127Z,60.68
2018-01-19T06:33:38.767Z,61.49
2018-01-19T06:36:06.441Z,62.49
2018-01-19T06:38:34.026Z,63.09
2018-01-19T06:41:01.562Z,62.21
2018-01-19T06:43:29.242Z,61.18
2018-01-19T06:45:56.951Z,60.44
2018-01-19T06:48:25.495Z,62.85
2018-01-19T06:50:53.051Z,65.52
2018-01-19T06:53:20.619Z,66.43
2018-01-19T06:55:48.224Z,67.67
2018-01-19T06:58:15.944Z,67.28
2018-01-19T07:00:43.499Z,67.50
2018-01-19T07:03:11.077Z,67.64
2018-01-19T07:05:38.610Z,67.70
2018-01-19T07:08:06.154Z,67.17
2018-01-19T07:10:33.824Z,66.37
2018-01-19T07:13:01.462Z,65.80
2018-01-19T07:15:29.108Z,65.51
2018-01-19T07:17:56.634Z,66.01
2018-01-19T07:20:24.226Z,65.02
2018-01-19T07:22:51.990Z,64.30
2018-01-19T07:25:20.050Z,63.89
2018-01-19T07:27:47.932Z,63.11
2018-01-19T07:30:15.514Z,61.97
2018-01-19T07:32:43.046Z,60.97
2018-01-19T07:35:10.578Z,59.68
2018-01-19T07:37:38.137Z,56.18
2018-01-19T07:40:05.930Z,49.53
2018-01-19T07:42:33.674Z,41.82
2018-01-19T07:45:01.323Z,35.86
2018-01-19T07:47:28.912Z,35.30
2018-01-19T07:49:56.795Z,34.17
2018-01-19T07:52:24.338Z,30.48
2018-01-19T07:54:51.892Z,29.53
2018-01-19T07:57:19.438Z,27.36
2018-01-19T07:59:47.094Z,26.18
2018-01-19T08:02:14.636Z,26.12
2018-01-19T08:04:42.335Z,23.91
2018-01-19T08:07:10.046Z,22.85
2018-01-19T08:09:37.602Z,22.53
2018-01-19T08:12:05.266Z,21.27
2018-01-19T08:14:32.802Z,19.08
2018-01-19T08:17:00.346Z,17.68
2018-01-19T08:19:28.034Z,17.24
2018-01-19T08:21:55.706Z,16.67
2018-01-19T08:24:23.268Z,16.31
2018-01-19T08:26:50.810Z,15.68
2018-01-19T08:29:18.363Z,15.14
2018-01-19T08:31:46.015Z,15.31
2018-01-19T08:34:13.613Z,15.80
2018-01-19T08:36:41.150Z,16.70
2018-01-19T08:39:08.734Z,20.39
2018-01-19T08:41:36.274Z,21.78
2018-01-19T08:44:03.818Z,21.26
2018-01-19T08:46:31.436Z,18.40
2018-01-19T08:48:58.993Z,16.70
2018-01-19T08:51:26.575Z,17.82
2018-01-19T08:53:54.383Z,17.26
2018-01-19T08:56:21.927Z,17.79
2018-01-19T08:58:49.627Z,18.58
2018-01-19T09:01:17.192Z,19.23
2018-01-19T09:03:44.790Z,19.05
2018-01-19T09:06:12.346Z,17.00
2018-01-19T09:08:40.092Z,17.44
2018-01-19T09:11:07.811Z,17.37
2018-01-19T09:13:35.419Z,17.78
2018-01-19T09:16:03.105Z,18.01
2018-01-19T09:18:30.637Z,18.42
2018-01-19T09:20:58.222Z,17.33
2018-01-19T09:23:25.759Z,17.79
2018-01-19T09:25:53.499Z,19.28
2018-01-19T09:28:21.212Z,18.85
2018-01-19T09:30:48.811Z,21.02
2018-01-19T09:33:16.479Z,22.77
2018-01-19T09:35:44.132Z,23.81
2018-01-19T09:38:11.712Z,24.16
2018-01-19T09:40:39.627Z,24.64
2018-01-19T09:43:07.162Z,24.38
2018-01-19T09:45:34.917Z,24.93
2018-01-19T09:48:02.769Z,24.13
2018-01-19T09:50:30.366Z,22.86
2018-01-19T09:52:57.966Z,22.54
2018-01-19T09:55:25.573Z,22.16
2018-01-19T09:57:53.113Z,21.32
2018-01-19T10:00:20.651Z,20.27
2018-01-19T10:02:48.295Z,19.92
2018-01-19T10:05:16.007Z,19.81
2018-01-19T10:07:44.185Z,20.56
2018-01-19T10:10:11.941Z,20.64
2018-01-19T10:12:39.634Z,19.94
2018-01-19T10:15:07.171Z,19.37
2018-01-19T10:17:34.799Z,19.29
2018-01-19T10:20:02.358Z,21.10
2018-01-19T10:22:29.950Z,23.11
2018-01-19T10:24:57.655Z,21.40
2018-01-19T10:27:25.365Z,22.18
2018-01-19T10:29:53.094Z,21.94
2018-01-19T10:32:20.830Z,22.24
2018-01-19T10:34:48.621Z,21.66
2018-01-19T10:37:16.173Z,21.57
2018-01-19T10:39:43.747Z,21.19
2018-01-19T10:42:11.290Z,21.38
2018-01-19T10:44:38.826Z,21.98
2018-01-19T10:47:06.371Z,21.80
2018-01-19T10:49:33.980Z,22.76
2018-01-19T10:52:01.578Z,22.41
2018-01-19T10:54:29.115Z,21.66
2018-01-19T10:56:56.650Z,21.18
2018-01-19T10:59:25.392Z,21.16
2018-01-19T11:01:52.935Z,22.56
2018-01-19T11:04:20.558Z,21.88
2018-01-19T11:06:48.162Z,21.41
2018-01-19T11:09:15.878Z,21.98
2018-01-19T11:11:43.482Z,22.29
2018-01-19T11:14:11.034Z,21.32
2018-01-19T11:16:38.638Z,22.17
2018-01-19T11:19:06.347Z,22.38
2018-01-19T11:21:33.931Z,20.64
2018-01-19T11:24:01.629Z,19.57
2018-01-19T11:26:29.300Z,20.30
2018-01-19T11:28:56.830Z,20.63
2018-01-19T11:31:24.406Z,21.26
2018-01-19T11:33:52.010Z,19.94
2018-01-19T11:36:19.559Z,20.70
2018-01-19T11:38:47.287Z,19.46
2018-01-19T11:41:14.822Z,21.44
2018-01-19T11:43:42.522Z,18.35
2018-01-19T11:46:10.094Z,19.77
2018-01-19T11:48:37.771Z,18.79
2018-01-19T11:51:05.326Z,19.23
2018-01-19T11:53:32.871Z,18.20
2018-01-19T11:56:00.409Z,16.24
2018-01-19T11:58:27.956Z,15.56
2018-01-19T12:00:55.543Z,16.61
2018-01-19T12:03:23.367Z,16.94
2018-01-19T12:05:51.185Z,19.07
2018-01-19T12:08:18.729Z,18.90
2018-01-19T12:10:46.263Z,18.27
2018-01-19T12:13:14.009Z,19.66
2018-01-19T12:15:41.539Z,19.49
2018-01-19T12:18:09.118Z,19.13
2018-01-19T12:20:36.790Z,19.54
2018-01-19T12:23:04.335Z,19.50
2018-01-19T12:25:32.026Z,20.78
2018-01-19T12:27:59.642Z,21.48
2018-01-19T12:30:27.198Z,21.69
2018-01-19T12:32:54.730Z,21.49
2018-01-19T12:35:22.598Z,20.98
2018-01-19T12:37:50.146Z,20.84
2018-01-19T12:40:17.719Z,20.40
2018-01-19T12:42:45.319Z,19.15
2018-01-19T12:45:13.026Z,18.99
2018-01-19T12:47:40.626Z,19.14
2018-01-19T12:50:08.397Z,19.98
2018-01-19T12:52:35.946Z,19.95
2018-01-19T12:55:03.550Z,19.28
2018-01-19T12:57:31.163Z,20.22
2018-01-19T12:59:58.977Z,19.83
2018-01-19T13:02:26.515Z,19.82
2018-01-19T13:04:54.044Z,19.42
2018-01-19T13:07:21.586Z,19.20
2018-01-19T13:09:49.135Z,17.79
2018-01-19T13:12:16.702Z,18.57
2018-01-19T13:14:44.273Z,17.70
2018-01-19T13:17:12.188Z,18.83
2018-01-19T13:19:39.799Z,18.26
2018-01-19T13:22:07.344Z,16.95
2018-01-19T13:24:34.891Z,18.12
2018-01-19T13:27:02.636Z,17.21
2018-01-19T13:29:30.250Z,16.84
2018-01-19T13:31:57.969Z,19.01
2018-01-19T13:34:25.500Z,19.27
2018-01-19T13:36:53.344Z,18.78
2018-01-19T13:39:21.062Z,17.96
2018-01-19T13:41:48.645Z,17.00
2018-01-19T13:44:16.304Z,17.71
2018-01-19T13:46:43.838Z,16.84
2018-01-19T13:49:11.398Z,17.24
2018-01-19T13:51:38.931Z,16.59
2018-01-19T13:54:06.476Z,16.96
2018-01-19T13:56:34.014Z,16.54
2018-01-19T13:59:01.705Z,16.22
2018-01-19T14:01:29.242Z,16.09
2018-01-19T14:03:56.942Z,16.11
2018-01-19T14:06:24.504Z,17.27
2018-01-19T14:08:52.176Z,18.80
2018-01-19T14:11:19.782Z,20.82
2018-01-19T14:13:47.481Z,20.88
2018-01-19T14:16:15.066Z,21.71
2018-01-19T14:18:42.606Z,22.46
2018-01-19T14:21:10.156Z,22.54
2018-01-19T14:23:37.712Z,22.86
2018-01-19T14:26:05.254Z,22.59
2018-01-19T14:28:32.831Z,21.37
2018-01-19T14:31:00.542Z,20.24
2018-01-19T14:33:28.169Z,20.35
2018-01-19T14:35:55.763Z,21.03
2018-01-19T14:38:23.390Z,18.98
2018-01-19T14:40:50.953Z,20.58
2018-01-19T14:43:18.516Z,20.91
2018-01-19T14:45:46.075Z,22.62
2018-01-19T14:48:13.650Z,22.83
2018-01-19T14:50:41.245Z,24.07
2018-01-19T14:53:08.794Z,24.97
2018-01-19T14:55:36.412Z,25.29
2018-01-19T14:58:04.018Z,27.57
2018-01-19T15:00:31.667Z,29.85
2018-01-19T15:02:59.253Z,31.07
2018-01-19T15:05:26.958Z,31.98
2018-01-19T15:07:54.551Z,33.76
2018-01-19T15:10:22.086Z,33.93
2018-01-19T15:12:49.630Z,36.13
2018-01-19T15:15:17.264Z,38.17
2018-01-19T15:17:44.805Z,38.97
2018-01-19T15:20:12.503Z,40.86
2018-01-19T15:22:40.054Z,40.48
2018-01-19T15:25:07.619Z,40.15
2018-01-19T15:27:35.251Z,40.25
2018-01-19T15:30:02.966Z,43.16
2018-01-19T15:32:30.526Z,43.63
2018-01-19T15:34:58.089Z,43.24
2018-01-19T15:37:25.708Z,43.74
2018-01-19T15:39:54.242Z,43.32
2018-01-19T15:42:21.965Z,43.77
2018-01-19T15:44:49.519Z,44.82
2018-01-19T15:47:17.215Z,45.37
2018-01-19T15:49:44.766Z,45.78
2018-01-19T15:52:12.316Z,46.39
2018-01-19T15:54:39.943Z,46.63
2018-01-19T15:57:07.762Z,46.88
2018-01-19T15:59:35.301Z,46.75
2018-01-19T16:02:02.844Z,49.39
2018-01-19T16:04:30.397Z,49.98
2018-01-19T16:06:58.020Z,49.19
2018-01-19T16:09:25.565Z,51.08
2018-01-19T16:11:53.369Z,51.89
2018-01-19T16:14:20.934Z,51.97
2018-01-19T16:16:48.526Z,51.37
2018-01-19T16:19:16.104Z,50.35
2018-01-19T16:21:43.658Z,49.81
2018-01-19T16:24:11.458Z,49.46
2018-01-19T16:26:39.078Z,50.55
2018-01-19T16:29:06.771Z,52.76
2018-01-19T16:31:34.317Z,53.56
2018-01-19T16:34:01.882Z,53.78
2018-01-19T16:36:29.444Z,53.81
2018-01-19T16:38:56.991Z,53.91
2018-01-19T16:41:24.550Z,53.75
2018-01-19T16:43:52.301Z,53.58
2018-01-19T16:46:19.922Z,52.60
2018-01-19T16:48:47.466Z,52.82
2018-01-19T16:51:15.163Z,52.06
2018-01-19T16:53:42.718Z,51.16
2018-01-19T16:56:10.449Z,50.04
2018-01-19T16:58:37.994Z,48.04
2018-01-19T17:01:05.534Z,48.04
2018-01-19T17:03:33.070Z,47.58
2018-01-19T17:06:00.626Z,47.61
2018-01-19T17:08:28.175Z,47.43
2018-01-19T17:10:55.997Z,47.64
2018-01-19T17:13:23.660Z,48.45
2018-01-19T17:15:51.461Z,48.51
2018-01-19T17:18:19.078Z,47.98
2018-01-19T17:20:46.869Z,44.35
2018-01-19T17:23:14.475Z,46.86
2018-01-19T17:25:42.009Z,45.62
2018-01-19T17:28:09.537Z,44.12
2018-01-19T17:30:37.248Z,43.93
2018-01-19T17:33:04.780Z,45.37
2018-01-19T17:35:32.371Z,44.08
2018-01-19T17:37:59.903Z,44.34
2018-01-19T17:40:27.611Z,44.89
2018-01-19T17:42:55.145Z,46.53
2018-01-19T17:45:22.674Z,47.15
2018-01-19T17:47:50.466Z,47.29
2018-01-19T17:50:17.994Z,45.67
2018-01-19T17:52:45.534Z,47.72
2018-01-19T17:55:13.078Z,46.97
2018-01-19T17:57:40.625Z,47.15
2018-01-19T18:00:08.230Z,45.97
2018-01-19T18:02:35.762Z,46.26
2018-01-19T18:05:03.494Z,45.48
2018-01-19T18:07:31.090Z,46.40
2018-01-19T18:09:58.653Z,47.09
2018-01-19T18:12:26.266Z,45.55
2018-01-19T18:14:53.826Z,46.69
2018-01-19T18:17:21.418Z,49.65
2018-01-19T18:19:48.970Z,50.28
2018-01-19T18:22:16.713Z,49.78
2018-01-19T18:24:44.430Z,49.67
2018-01-19T18:27:11.990Z,48.72
2018-01-19T18:29:39.522Z,47.69
2018-01-19T18:32:07.074Z,46.94
2018-01-19T18:34:34.606Z,45.47
2018-01-19T18:37:02.187Z,46.79
2018-01-19T18:39:29.722Z,46.37
2018-01-19T18:41:57.302Z,46.08
2018-01-19T18:44:24.975Z,46.51
2018-01-19T18:46:52.590Z,46.64
2018-01-19T18:49:20.198Z,46.33
2018-01-19T18:51:47.738Z,46.48
2018-01-19T18:54:15.270Z,48.05
2018-01-19T18:56:42.963Z,47.05
2018-01-19T18:59:10.522Z,47.40
2018-01-19T19:01:38.127Z,47.79
2018-01-19T19:04:05.721Z,47.85
2018-01-19T19:06:33.533Z,49.08
2018-01-19T19:09:01.089Z,50.63
2018-01-19T19:11:28.622Z,50.60
2018-01-19T19:13:57.282Z,50.47
2018-01-19T19:16:24.832Z,51.90
2018-01-19T19:18:52.530Z,52.01
2018-01-19T19:21:20.117Z,52.33
2018-01-19T19:23:47.658Z,52.20
2018-01-19T19:26:15.480Z,52.31
2018-01-19T19:28:43.096Z,52.33
2018-01-19T19:31:10.823Z,50.76
2018-01-19T19:33:38.370Z,52.41
2018-01-19T19:36:05.913Z,52.99
2018-01-19T19:38:33.546Z,53.11
2018-01-19T19:41:01.094Z,52.30
2018-01-19T19:43:28.696Z,53.26
2018-01-19T19:45:56.294Z,53.43
2018-01-19T19:48:23.827Z,54.33
2018-01-19T19:50:51.362Z,54.92
2018-01-19T19:53:18.914Z,55.03
2018-01-19T19:55:46.482Z,55.00
2018-01-19T19:58:14.102Z,54.97
2018-01-19T20:00:41.654Z,54.20
2018-01-19T20:03:09.182Z,52.91
2018-01-19T20:05:36.965Z,53.20
2018-01-19T20:08:04.582Z,52.74
2018-01-19T20:10:32.210Z,52.47
2018-01-19T20:13:00.025Z,52.23
2018-01-19T20:15:27.553Z,52.42
2018-01-19T20:17:55.102Z,51.12
2018-01-19T20:20:22.642Z,51.01
2018-01-19T20:22:50.390Z,51.19
2018-01-19T20:25:18.219Z,51.80
2018-01-19T20:27:46.029Z,49.52
2018-01-19T20:30:13.574Z,50.03
2018-01-19T20:32:41.362Z,51.52
2018-01-19T20:35:08.906Z,51.36
2018-01-19T20:37:36.597Z,52.56
2018-01-19T20:40:04.386Z,53.35
2018-01-19T20:42:31.974Z,54.07
2018-01-19T20:44:59.505Z,52.27
2018-01-19T20:47:27.046Z,50.37
2018-01-19T20:49:54.590Z,50.72
2018-01-19T20:52:22.305Z,50.50
2018-01-19T20:54:49.894Z,49.00
2018-01-19T20:57:17.743Z,50.84
2018-01-19T20:59:45.314Z,53.29
2018-01-19T21:02:13.030Z,54.58
2018-01-19T21:04:40.586Z,56.22
2018-01-19T21:07:08.166Z,56.53
2018-01-19T21:09:35.824Z,57.26
2018-01-19T21:12:03.378Z,56.95
2018-01-19T21:14:30.967Z,57.90
2018-01-19T21:16:58.566Z,58.29
2018-01-19T21:19:26.106Z,57.80
2018-01-19T21:21:53.653Z,58.30
2018-01-19T21:24:21.195Z,58.54
2018-01-19T21:26:48.747Z,58.05
2018-01-19T21:29:16.302Z,58.30
2018-01-19T21:31:44.089Z,56.81
2018-01-19T21:34:11.633Z,56.95
2018-01-19T21:36:39.175Z,56.65
2018-01-19T21:39:06.728Z,57.07
2018-01-19T21:41:34.274Z,56.26
2018-01-19T21:44:01.822Z,57.19
2018-01-19T21:46:29.365Z,55.86
2018-01-19T21:48:57.917Z,55.89
2018-01-19T21:51:25.734Z,55.74
2018-01-19T21:53:53.318Z,55.77
2018-01-19T21:56:20.974Z,55.06
2018-01-19T21:58:48.505Z,55.52
2018-01-19T22:01:16.050Z,56.70
2018-01-19T22:03:43.726Z,58.04
2018-01-19T22:06:11.385Z,58.97
2018-01-19T22:08:38.920Z,59.97
2018-01-19T22:11:06.578Z,59.84
2018-01-19T22:13:34.118Z,60.95
2018-01-19T22:16:01.674Z,61.02
2018-01-19T22:18:29.226Z,61.90
2018-01-19T22:20:56.762Z,62.45
2018-01-19T22:23:24.354Z,62.99
2018-01-19T22:25:51.896Z,61.70
2018-01-19T22:28:19.434Z,61.46
2018-01-19T22:30:46.970Z,61.48
2018-01-19T22:33:14.706Z,63.92
2018-01-19T22:35:42.262Z,64.09
2018-01-19T22:38:09.806Z,65.43
2018-01-19T22:40:37.381Z,65.27
2018-01-19T22:43:04.909Z,65.91
2018-01-19T22:45:32.487Z,65.60
2018-01-19T22:48:00.039Z,64.21
2018-01-19T22:50:27.582Z,64.37
2018-01-19T22:52:55.122Z,63.74
2018-01-19T22:55:22.650Z,62.49
2018-01-19T22:57:50.479Z,62.81
2018-01-19T23:00:21.046Z,62.24
2018-01-19T23:02:48.582Z,61.61
2018-01-19T23:05:16.278Z,62.47
2018-01-19T23:07:43.817Z,62.65
2018-01-19T23:10:11.398Z,62.61
2018-01-19T23:12:39.034Z,63.08
2018-01-19T23:15:06.848Z,64.05
2018-01-19T23:17:34.382Z,65.34
2018-01-19T23:20:02.186Z,65.64
2018-01-19T23:22:29.902Z,67.17
2018-01-19T23:24:57.446Z,66.19
2018-01-19T23:27:25.138Z,65.34
2018-01-19T23:29:52.762Z,64.53
2018-01-19T23:32:20.438Z,64.55
2018-01-19T23:34:47.974Z,63.30
2018-01-19T23:37:15.518Z,63.10
2018-01-19T23:39:43.328Z,62.32
2018-01-19T23:42:10.853Z,60.66
2018-01-19T23:44:38.406Z,60.43
2018-01-19T23:47:05.942Z,59.75
2018-01-19T23:49:33.658Z,59.84
2018-01-19T23:52:01.185Z,60.49
2018-01-19T23:54:28.726Z,60.25
2018-01-19T23:56:56.407Z,61.13
2018-01-19T23:59:23.952Z,62.89
